Time;durP1;ratioP1;P1;durP2;ratioP2;P2;SDS_P1;SDS_P2;PMS_P1;PMS_P2;Temp;Humidity;BMP_temperature;BMP_pressure;BME280_temperature;BME280_humidity;BME280_pressure;Samples;Min_cycle;Max_cycle;Signal;HPM_P1;HPM_P2
2022/07/07 00:00:32;;;;;;;;;2.00;2.00;;;;;19.98;56.33;101887.97;5066864;27;45608;-64
2022/07/07 00:02:58;;;;;;;;;5.00;2.00;;;;;19.85;57.17;101864.69;5065028;28;45951;-66
2022/07/07 00:05:24;;;;;;;;;2.00;2.00;;;;;19.86;57.29;101871.81;5056982;27;45412;-65
2022/07/07 00:07:50;;;;;;;;;3.00;3.00;;;;;19.85;57.22;101873.66;5070274;28;45463;-64
2022/07/07 00:10:16;;;;;;;;;5.00;3.00;;;;;19.84;56.86;101868.38;5072230;27;45704;-63
2022/07/07 00:12:41;;;;;;;;;2.67;2.67;;;;;19.84;57.25;101868.38;5074798;27;45590;-65
2022/07/07 00:15:08;;;;;;;;;3.00;3.00;;;;;19.81;57.39;101863.22;5075797;27;45410;-66
2022/07/07 00:17:33;;;;;;;;;2.00;2.00;;;;;19.68;57.94;101863.28;5061755;27;45520;-67
2022/07/07 00:19:59;;;;;;;;;3.00;3.00;;;;;19.74;57.29;101865.50;5067691;27;45612;-66
2022/07/07 00:22:25;;;;;;;;;4.67;4.67;;;;;19.80;57.40;101864.19;5076634;27;45976;-65
2022/07/07 00:24:50;;;;;;;;;2.00;2.00;;;;;19.79;57.66;101866.00;5066238;27;45564;-64
2022/07/07 00:27:19;;;;;;;;;2.33;2.33;;;;;19.76;57.02;101866.22;5069398;27;45579;-66
2022/07/07 00:29:44;;;;;;;;;2.00;2.00;;;;;19.81;57.00;101868.63;5068684;27;45485;-62
2022/07/07 00:32:11;;;;;;;;;2.00;2.00;;;;;19.84;57.05;101862.97;5076529;28;46068;-66
2022/07/07 00:34:36;;;;;;;;;1.67;1.67;;;;;19.86;57.02;101863.72;5076971;27;45591;-66
2022/07/07 00:37:02;;;;;;;;;2.00;2.00;;;;;19.86;57.21;101863.72;5073602;27;45493;-63
2022/07/07 00:39:27;;;;;;;;;2.00;2.00;;;;;19.84;56.79;101862.97;5072591;27;45603;-65
2022/07/07 00:41:52;;;;;;;;;1.00;1.00;;;;;19.88;56.37;101849.13;5068319;27;47081;-62
2022/07/07 00:44:18;;;;;;;;;1.00;1.00;;;;;19.88;56.81;101842.88;5071805;27;45407;-62
2022/07/07 00:46:45;;;;;;;;;2.00;2.00;;;;;19.82;56.50;101832.53;5060068;27;45634;-64
2022/07/07 00:49:11;;;;;;;;;1.67;1.67;;;;;19.79;57.17;101841.72;5074855;27;45553;-66
2022/07/07 00:51:37;;;;;;;;;2.00;2.00;;;;;19.77;56.65;101840.97;5071509;27;46028;-66
2022/07/07 00:54:03;;;;;;;;;1.00;1.00;;;;;19.76;57.03;101833.84;5085154;27;45397;-60
2022/07/07 00:56:28;;;;;;;;;2.00;2.00;;;;;19.72;57.37;101832.38;5088963;27;45432;-61
2022/07/07 00:58:54;;;;;;;;;3.00;3.00;;;;;19.69;57.51;101835.28;5075971;27;45286;-61
2022/07/07 01:01:19;;;;;;;;;2.00;2.00;;;;;19.67;57.41;101835.41;5063387;27;45341;-62
2022/07/07 01:03:45;;;;;;;;;5.00;2.33;;;;;19.65;57.21;101831.09;5076617;27;45519;-62
2022/07/07 01:06:11;;;;;;;;;3.67;3.33;;;;;19.52;58.64;101819.44;5074598;27;45264;-62
2022/07/07 01:08:36;;;;;;;;;3.00;3.00;;;;;19.49;58.44;101814.28;5065467;27;45591;-62
2022/07/07 01:11:02;;;;;;;;;4.00;4.00;;;;;19.50;58.09;101813.31;5066880;27;45344;-60
2022/07/07 01:13:27;;;;;;;;;3.33;3.33;;;;;19.52;57.84;101816.75;5061620;27;45411;-61
2022/07/07 01:15:53;;;;;;;;;3.00;3.00;;;;;19.52;58.08;101819.44;5071089;27;45550;-64
2022/07/07 01:18:18;;;;;;;;;3.33;3.00;;;;;19.49;58.02;101815.16;5067986;27;45273;-63
2022/07/07 01:20:47;;;;;;;;;2.00;2.00;;;;;19.49;58.12;101820.53;5074179;27;46811;-65
2022/07/07 01:23:13;;;;;;;;;2.00;2.00;;;;;19.49;58.03;101822.38;5075826;27;45358;-65
2022/07/07 01:25:39;;;;;;;;;3.33;2.33;;;;;19.40;58.56;101816.72;5076037;28;45246;-66
2022/07/07 01:28:04;;;;;;;;;2.00;2.00;;;;;19.29;59.48;101816.63;5073671;27;45532;-64
2022/07/07 01:30:30;;;;;;;;;4.00;2.67;;;;;19.34;58.46;101822.53;5075608;27;46035;-65
2022/07/07 01:32:55;;;;;;;;;3.00;3.00;;;;;19.30;58.56;101804.88;5073600;27;45276;-65
2022/07/07 01:35:20;;;;;;;;;3.67;3.33;;;;;19.29;59.01;101810.38;5073372;27;45399;-61
2022/07/07 01:37:46;;;;;;;;;2.33;2.33;;;;;19.26;59.95;101821.38;5073823;27;45416;-61
2022/07/07 01:40:12;;;;;;;;;3.33;3.33;;;;;19.26;58.87;101813.28;5075469;27;45613;-62
2022/07/07 01:42:37;;;;;;;;;2.00;2.00;;;;;19.27;58.46;101796.13;5074307;27;45343;-61
2022/07/07 01:45:03;;;;;;;;;1.33;1.33;;;;;19.26;58.36;101791.69;5071023;27;45807;-62
2022/07/07 01:47:28;;;;;;;;;3.33;2.00;;;;;19.32;58.54;101812.84;5075823;27;45588;-63
2022/07/07 01:49:54;;;;;;;;;2.00;2.00;;;;;19.29;58.74;101802.28;5078242;27;45441;-64
2022/07/07 01:52:19;;;;;;;;;3.00;3.00;;;;;19.31;58.56;101806.59;5076872;27;45386;-64
2022/07/07 01:54:46;;;;;;;;;2.00;2.00;;;;;19.28;58.37;101804.13;5081376;27;45247;-64
2022/07/07 01:57:12;;;;;;;;;2.67;2.67;;;;;19.25;58.62;101798.94;5079445;27;45385;-60
2022/07/07 01:59:38;;;;;;;;;2.00;2.00;;;;;19.22;58.55;101798.31;5080286;27;45873;-62
2022/07/07 02:02:04;;;;;;;;;4.00;3.00;;;;;19.20;59.29;101798.41;5065280;27;45268;-62
2022/07/07 02:04:29;;;;;;;;;4.00;3.00;;;;;19.22;58.77;101793.75;5080351;27;45325;-61
2022/07/07 02:06:55;;;;;;;;;3.33;3.33;;;;;19.22;58.81;101795.59;5080265;27;45683;-59
2022/07/07 02:09:20;;;;;;;;;2.00;2.00;;;;;19.21;58.69;101783.97;5077725;27;45913;-61
2022/07/07 02:11:45;;;;;;;;;2.33;2.00;;;;;19.21;58.86;101780.41;5076643;28;45309;-65
2022/07/07 02:14:11;;;;;;;;;2.00;2.00;;;;;19.17;58.46;101776.22;5077857;27;45262;-62
2022/07/07 02:16:37;;;;;;;;;7.67;4.00;;;;;19.14;58.94;101774.56;5078877;27;45527;-63
2022/07/07 02:19:08;;;;;;;;;2.33;2.33;;;;;19.13;58.82;101775.56;5076836;27;45486;-62
2022/07/07 02:21:34;;;;;;;;;3.00;3.00;;;;;19.12;58.73;101773.84;5078537;27;45239;-62
2022/07/07 02:24:00;;;;;;;;;3.33;3.00;;;;;19.13;58.90;101775.56;5077904;27;45515;-65
2022/07/07 02:26:26;;;;;;;;;2.00;2.00;;;;;19.09;58.60;101776.75;5090736;27;45443;-64
2022/07/07 02:28:52;;;;;;;;;1.00;1.00;;;;;19.05;59.32;101786.06;5066684;27;45366;-66
2022/07/07 02:31:18;;;;;;;;;0.00;0.00;;;;;19.03;59.40;101790.72;5060970;27;45409;-65
2022/07/07 02:33:45;;;;;;;;;3.67;3.00;;;;;18.96;59.32;101784.03;5077046;27;45475;-63
2022/07/07 02:36:10;;;;;;;;;2.00;2.00;;;;;18.99;59.43;101789.19;5075540;27;45356;-66
2022/07/07 02:38:37;;;;;;;;;3.00;3.00;;;;;18.97;59.81;101786.59;5078285;27;46086;-66
2022/07/07 02:41:03;;;;;;;;;2.67;2.00;;;;;18.95;59.84;101787.69;5078423;27;45882;-66
2022/07/07 02:43:29;;;;;;;;;2.00;2.00;;;;;18.93;59.54;101781.56;5077220;27;45318;-65
2022/07/07 02:45:55;;;;;;;;;4.00;3.00;;;;;18.81;60.88;101786.84;5065550;27;45313;-65
2022/07/07 02:48:23;;;;;;;;;1.67;1.67;;;;;18.79;60.08;101783.41;5074856;27;45389;-65
2022/07/07 02:50:49;;;;;;;;;3.00;2.00;;;;;18.80;60.18;101789.66;5077943;27;45380;-63
2022/07/07 02:53:15;;;;;;;;;3.00;2.00;;;;;18.80;59.82;101782.44;5077334;27;45579;-65
2022/07/07 02:55:41;;;;;;;;;3.00;3.00;;;;;18.67;60.58;101760.03;5078275;27;45393;-64
2022/07/07 02:58:08;;;;;;;;;3.00;3.00;;;;;18.74;61.10;101790.94;5076673;27;45487;-62
2022/07/07 03:00:35;;;;;;;;;3.00;3.00;;;;;18.68;61.63;101786.00;5079198;27;45840;-62
2022/07/07 03:03:02;;;;;;;;;3.00;3.00;;;;;18.69;61.02;101781.47;5069763;27;45296;-63
2022/07/07 03:05:27;;;;;;;;;3.33;3.33;;;;;18.65;61.01;101791.63;5076334;27;45584;-61
2022/07/07 03:07:53;;;;;;;;;6.00;5.00;;;;;18.60;60.98;101769.47;5072653;27;45410;-60
2022/07/07 03:10:18;;;;;;;;;4.00;2.00;;;;;18.69;60.64;101776.94;5077117;27;45365;-61
2022/07/07 03:12:44;;;;;;;;;2.67;2.33;;;;;18.64;60.99;101779.13;5076596;28;45284;-63
2022/07/07 03:15:10;;;;;;;;;2.00;2.00;;;;;18.58;61.30;101769.59;5058803;27;45522;-62
2022/07/07 03:17:36;;;;;;;;;5.00;5.00;;;;;18.58;61.37;101783.06;5076887;27;45381;-65
2022/07/07 03:20:02;;;;;;;;;3.67;3.67;;;;;18.55;62.41;101779.72;5075968;27;45448;-65
2022/07/07 03:22:28;;;;;;;;;2.33;2.00;;;;;18.50;61.85;101781.91;5077448;27;45416;-62
2022/07/07 03:24:53;;;;;;;;;6.00;4.00;;;;;18.46;61.86;101774.97;5077236;27;45345;-66
2022/07/07 03:27:19;;;;;;;;;4.67;3.00;;;;;18.40;62.14;101770.03;5076546;27;45578;-66
2022/07/07 03:29:44;;;;;;;;;3.00;3.00;;;;;18.42;63.32;101779.72;5076619;27;45165;-66
2022/07/07 03:32:10;;;;;;;;;4.33;4.00;;;;;18.24;62.95;101757.66;5076597;27;45347;-64
2022/07/07 03:34:36;;;;;;;;;3.33;3.33;;;;;18.38;62.33;101777.38;5077821;27;45227;-62
2022/07/07 03:37:02;;;;;;;;;4.00;2.33;;;;;18.38;62.23;101771.97;5075198;27;45344;-64
2022/07/07 03:39:27;;;;;;;;;2.00;2.00;;;;;18.33;63.55;101771.41;5076730;27;45350;-63
2022/07/07 03:41:53;;;;;;;;;3.00;3.00;;;;;18.28;62.98;101777.16;5056630;27;45374;-61
2022/07/07 03:44:18;;;;;;;;;3.00;3.00;;;;;18.30;63.15;101774.34;5057546;28;45746;-66
2022/07/07 03:46:44;;;;;;;;;4.00;2.33;;;;;18.37;61.91;101767.56;5075959;27;46281;-60
2022/07/07 03:49:10;;;;;;;;;3.00;3.00;;;;;18.35;62.15;101756.00;5075817;27;45457;-60
2022/07/07 03:51:35;;;;;;;;;3.33;3.00;;;;;18.35;61.91;101759.56;5076365;27;45310;-64
2022/07/07 03:54:00;;;;;;;;;5.00;4.00;;;;;18.35;62.18;101756.00;5074579;27;45453;-66
2022/07/07 03:56:26;;;;;;;;;3.00;3.00;;;;;18.27;62.40;101745.81;5079973;27;45995;-67
2022/07/07 03:58:51;;;;;;;;;5.00;3.00;;;;;18.33;62.34;101766.03;5078954;27;45413;-64
2022/07/07 04:01:16;;;;;;;;;4.00;4.00;;;;;18.30;62.52;101756.34;5062736;27;45390;-62
2022/07/07 04:03:42;;;;;;;;;4.00;4.00;;;;;18.31;62.67;101759.91;5059255;27;45588;-65
2022/07/07 04:06:07;;;;;;;;;3.67;3.67;;;;;18.26;62.69;101753.00;5076710;27;45225;-64
2022/07/07 04:08:33;;;;;;;;;4.00;4.00;;;;;18.26;63.31;101760.22;5077535;27;45519;-64
2022/07/07 04:10:58;;;;;;;;;3.00;3.00;;;;;18.26;62.48;101761.09;5072892;27;45394;-61
2022/07/07 04:13:24;;;;;;;;;4.00;4.00;;;;;18.22;62.92;101756.00;5071974;27;45814;-62
2022/07/07 04:15:50;;;;;;;;;3.67;3.00;;;;;18.19;63.39;101762.47;5063676;27;46091;-62
2022/07/07 04:18:15;;;;;;;;;6.00;4.00;;;;;18.02;63.43;101743.09;5077987;27;45302;-65
2022/07/07 04:20:41;;;;;;;;;4.00;3.00;;;;;18.18;63.31;101760.75;5076266;27;45174;-62
2022/07/07 04:23:06;;;;;;;;;4.00;4.00;;;;;18.17;63.41;101768.94;5076306;27;45574;-61
2022/07/07 04:25:32;;;;;;;;;4.00;4.00;;;;;18.18;64.07;101760.75;5049296;28;46201;-64
2022/07/07 04:27:57;;;;;;;;;5.67;3.00;;;;;18.18;63.66;101754.50;5071613;27;45448;-67
2022/07/07 04:30:23;;;;;;;;;4.00;4.00;;;;;18.16;63.67;101753.75;5076955;27;45337;-63
2022/07/07 04:32:48;;;;;;;;;3.00;3.00;;;;;18.20;63.56;101753.44;5075166;27;45345;-66
2022/07/07 04:35:14;;;;;;;;;2.00;2.00;;;;;18.15;63.82;101755.59;5075601;27;46156;-64
2022/07/07 04:37:39;;;;;;;;;4.00;4.00;;;;;18.15;63.95;101758.28;5075712;27;45824;-66
2022/07/07 04:40:05;;;;;;;;;4.00;4.00;;;;;18.21;63.79;101765.06;5076261;27;45348;-66
2022/07/07 04:42:31;;;;;;;;;7.00;4.33;;;;;18.20;64.31;101768.72;5075063;27;45361;-63
2022/07/07 04:44:57;;;;;;;;;1.33;1.33;;;;;18.19;65.45;101773.25;5074417;27;46308;-64
2022/07/07 04:47:23;;;;;;;;;4.67;3.67;;;;;18.14;64.86;101772.72;5075499;27;45503;-65
2022/07/07 04:49:50;;;;;;;;;4.67;4.33;;;;;18.19;64.36;101781.31;5076554;27;45326;-66
2022/07/07 04:52:16;;;;;;;;;4.33;3.00;;;;;18.21;64.66;101779.38;5076671;27;45171;-64
2022/07/07 04:54:41;;;;;;;;;4.00;4.00;;;;;18.18;64.97;101787.69;5075150;27;45250;-61
2022/07/07 04:57:06;;;;;;;;;5.00;5.00;;;;;18.12;66.00;101792.63;5076373;27;45242;-63
2022/07/07 04:59:32;;;;;;;;;2.33;2.33;;;;;18.14;65.79;101788.00;5079273;27;45389;-64
2022/07/07 05:01:57;;;;;;;;;4.00;4.00;;;;;18.20;65.14;101791.13;5073427;27;45329;-66
2022/07/07 05:04:23;;;;;;;;;4.00;4.00;;;;;18.25;65.20;101796.22;5075577;27;45416;-65
2022/07/07 05:06:48;;;;;;;;;3.00;3.00;;;;;18.28;65.21;101799.53;5074907;27;45444;-65
2022/07/07 05:09:13;;;;;;;;;4.00;4.00;;;;;18.38;65.21;101812.38;5076080;27;45344;-65
2022/07/07 05:11:39;;;;;;;;;6.00;4.00;;;;;18.41;65.04;101798.69;5075835;27;45475;-65
2022/07/07 05:14:04;;;;;;;;;4.33;4.00;;;;;18.46;65.64;101810.00;5074102;27;46398;-63
2022/07/07 05:16:30;;;;;;;;;6.67;5.67;;;;;18.42;65.25;101806.66;5078899;27;45437;-60
2022/07/07 05:18:56;;;;;;;;;6.33;4.00;;;;;18.47;64.93;101798.25;5071529;27;45718;-64
2022/07/07 05:21:21;;;;;;;;;7.00;6.00;;;;;18.51;64.62;101789.00;5074245;27;45603;-62
2022/07/07 05:23:47;;;;;;;;;4.00;3.00;;;;;18.58;64.34;101790.28;5079109;27;45446;-68
2022/07/07 05:26:12;;;;;;;;;5.33;4.67;;;;;18.51;65.59;101791.69;5076582;27;45536;-69
2022/07/07 05:28:41;;;;;;;;;4.67;4.00;;;;;18.55;64.74;101795.91;5080587;27;45271;-62
2022/07/07 05:31:08;;;;;;;;;5.67;4.33;;;;;18.57;64.90;101804.72;5080500;27;45551;-67
2022/07/07 05:33:33;;;;;;;;;4.00;4.00;;;;;18.60;65.77;101809.88;5081453;27;45346;-62
2022/07/07 05:35:59;;;;;;;;;3.33;3.33;;;;;18.63;65.07;101807.00;5085044;27;45542;-65
2022/07/07 05:38:24;;;;;;;;;3.67;3.00;;;;;18.72;64.75;101809.06;5076956;27;45460;-66
2022/07/07 05:40:50;;;;;;;;;6.00;4.00;;;;;18.75;65.46;101810.66;5081342;27;45568;-66
2022/07/07 05:43:15;;;;;;;;;5.00;5.00;;;;;18.76;64.97;101813.28;5077256;27;46837;-65
2022/07/07 05:45:40;;;;;;;;;6.33;5.67;;;;;18.74;65.05;101812.50;5078779;27;45459;-63
2022/07/07 05:48:06;;;;;;;;;6.00;4.67;;;;;18.73;65.36;101801.84;5079059;27;45291;-64
2022/07/07 05:50:31;;;;;;;;;4.00;4.00;;;;;18.76;64.67;101807.88;5096803;27;45365;-68
2022/07/07 05:52:57;;;;;;;;;4.00;4.00;;;;;18.65;65.68;101802.41;5066091;27;45345;-67
2022/07/07 05:55:22;;;;;;;;;6.33;6.00;;;;;18.73;65.37;101815.31;5060587;27;45322;-65
2022/07/07 05:57:47;;;;;;;;;5.00;4.67;;;;;18.83;64.35;101805.59;5075616;27;45471;-68
2022/07/07 06:00:13;;;;;;;;;4.00;4.00;;;;;18.92;64.59;101809.47;5066045;27;45409;-66
2022/07/07 06:02:39;;;;;;;;;8.00;5.67;;;;;18.96;64.68;101824.47;5068251;27;47122;-65
2022/07/07 06:05:05;;;;;;;;;5.00;4.67;;;;;19.03;64.75;101823.06;5074953;27;45795;-60
2022/07/07 06:07:31;;;;;;;;;4.00;4.00;;;;;19.03;64.31;101834.72;5064051;27;45473;-61
2022/07/07 06:09:57;;;;;;;;;3.33;2.33;;;;;19.12;63.89;101822.38;5070426;27;45604;-64
2022/07/07 06:12:22;;;;;;;;;6.00;3.33;;;;;19.14;63.74;101823.13;5072107;27;45460;-60
2022/07/07 06:14:47;;;;;;;;;4.00;3.33;;;;;19.28;63.62;101841.88;5066464;27;45477;-60
2022/07/07 06:17:13;;;;;;;;;5.00;5.00;;;;;19.17;64.27;101836.41;5077648;27;45365;-59
2022/07/07 06:19:38;;;;;;;;;8.67;7.00;;;;;19.22;64.36;101863.03;5061151;27;45461;-61
2022/07/07 06:22:04;;;;;;;;;6.00;4.33;;;;;19.18;64.45;101851.59;5058250;28;45702;-64
2022/07/07 06:24:30;;;;;;;;;5.33;3.67;;;;;19.29;63.56;101859.78;5074877;27;45444;-54
2022/07/07 06:26:55;;;;;;;;;4.00;4.00;;;;;19.32;63.72;101854.16;5074381;27;45463;-60
2022/07/07 06:29:20;;;;;;;;;2.33;1.00;;;;;19.33;64.01;101847.78;5074309;27;45301;-61
2022/07/07 06:31:46;;;;;;;;;3.33;3.33;;;;;19.35;63.53;101856.63;5074904;27;46285;-62
2022/07/07 06:34:11;;;;;;;;;3.00;3.00;;;;;19.41;63.65;101861.59;5072775;27;45304;-63
2022/07/07 06:36:37;;;;;;;;;5.33;4.00;;;;;19.47;63.21;101862.09;5073897;28;45467;-59
2022/07/07 06:39:02;;;;;;;;;7.00;4.00;;;;;19.53;63.30;101865.22;5057985;28;45500;-60
2022/07/07 06:41:36;;;;;;;;;2.00;2.00;;;;;19.55;62.85;101863.31;5063288;27;45730;-65
2022/07/07 06:44:03;;;;;;;;;5.67;5.00;;;;;19.56;63.14;101858.78;5058147;28;45276;-62
2022/07/07 06:46:29;;;;;;;;;5.67;4.00;;;;;19.67;62.78;101861.53;5057363;28;45362;-60
2022/07/07 06:48:54;;;;;;;;;4.00;4.00;;;;;19.62;62.78;101842.13;5058427;28;45369;-62
2022/07/07 06:51:20;;;;;;;;;3.67;3.67;;;;;19.78;62.21;101858.03;5060830;28;46119;-62
2022/07/07 06:53:45;;;;;;;;;4.00;4.00;;;;;19.88;62.43;101864.47;5074451;27;45508;-62
2022/07/07 06:56:11;;;;;;;;;5.00;4.00;;;;;19.96;61.99;101867.47;5076827;27;45393;-60
2022/07/07 06:58:37;;;;;;;;;4.00;3.00;;;;;19.99;62.06;101862.69;5078347;27;45925;-60
2022/07/07 07:01:03;;;;;;;;;4.67;4.00;;;;;19.90;62.42;101860.66;5077976;27;46490;-60
2022/07/07 07:03:28;;;;;;;;;4.67;4.67;;;;;19.97;61.99;101869.19;5077470;28;45394;-60
2022/07/07 07:05:53;;;;;;;;;5.00;4.33;;;;;20.01;61.89;101858.03;5077664;27;45409;-61
2022/07/07 07:08:19;;;;;;;;;4.00;3.33;;;;;20.00;61.99;101852.75;5077888;27;45520;-60
2022/07/07 07:10:44;;;;;;;;;5.00;5.00;;;;;20.02;62.10;101862.44;5077418;27;45535;-59
2022/07/07 07:13:10;;;;;;;;;3.00;3.00;;;;;20.07;62.31;101863.94;5077483;27;45440;-59
2022/07/07 07:15:35;;;;;;;;;4.00;2.00;;;;;20.23;61.75;101880.72;5078796;27;45422;-59
2022/07/07 07:18:01;;;;;;;;;4.33;3.00;;;;;20.34;61.07;101869.94;5078877;27;45572;-62
2022/07/07 07:20:26;;;;;;;;;5.33;4.67;;;;;20.34;60.93;101872.66;5077886;27;45376;-61
2022/07/07 07:22:51;;;;;;;;;6.00;4.00;;;;;20.46;60.54;101881.69;5077509;27;45427;-63
2022/07/07 07:25:18;;;;;;;;;5.00;4.00;;;;;20.54;60.59;101890.03;5077533;27;45584;-61
2022/07/07 07:27:44;;;;;;;;;5.33;4.00;;;;;20.53;60.44;101894.59;5078163;27;45318;-61
2022/07/07 07:30:10;;;;;;;;;2.33;2.33;;;;;20.56;60.42;101894.34;5077159;27;45350;-60
2022/07/07 07:32:35;;;;;;;;;7.67;5.33;;;;;20.61;60.39;101897.56;5077500;27;45171;-61
2022/07/07 07:35:01;;;;;;;;;2.33;2.33;;;;;20.71;60.03;101896.84;5075998;27;45181;-62
2022/07/07 07:37:26;;;;;;;;;12.00;4.00;;;;;20.80;60.51;101904.22;5077435;27;45678;-60
2022/07/07 07:39:52;;;;;;;;;4.00;4.00;;;;;21.00;59.73;101898.13;5077176;27;45251;-59
2022/07/07 07:42:17;;;;;;;;;4.00;4.00;;;;;21.22;59.09;101897.25;5077267;27;45273;-60
2022/07/07 07:47:27;;;;;;;;;4.67;4.67;;;;;21.47;57.93;101907.00;5077737;28;45230;-61
2022/07/07 07:49:52;;;;;;;;;5.50;4.75;;;;;21.52;57.95;101912.06;5077580;27;45259;-62
2022/07/07 07:52:17;;;;;;;;;3.00;3.00;;;;;21.47;58.05;101907.00;5077116;27;45330;-62
2022/07/07 07:54:43;;;;;;;;;3.33;3.33;;;;;21.44;57.82;101918.94;5075871;28;45660;-63
2022/07/07 07:57:08;;;;;;;;;5.00;3.33;;;;;21.31;57.79;101907.38;5076149;27;45417;-63
2022/07/07 07:59:34;;;;;;;;;4.00;4.00;;;;;21.28;58.55;101920.28;5076746;27;45353;-62
2022/07/07 08:01:59;;;;;;;;;3.67;3.67;;;;;21.34;58.54;101911.66;5076735;27;45241;-60
2022/07/07 08:04:25;;;;;;;;;5.00;5.00;;;;;21.41;58.21;101912.91;5076987;27;45309;-61
2022/07/07 08:06:51;;;;;;;;;6.67;4.67;;;;;21.44;57.91;101907.25;5077205;27;45481;-60
2022/07/07 08:09:16;;;;;;;;;4.33;3.00;;;;;21.52;57.67;101909.34;5092714;27;47272;-61
2022/07/07 08:11:41;;;;;;;;;4.75;3.00;;;;;21.56;56.77;101905.38;5075832;28;45505;-60
2022/07/07 08:14:07;;;;;;;;;2.50;1.50;;;;;21.66;56.29;101896.41;5076589;27;45292;-62
2022/07/07 08:16:33;;;;;;;;;4.67;3.00;;;;;21.80;56.87;101889.84;5077509;27;45654;-62
2022/07/07 08:18:58;;;;;;;;;2.50;2.50;;;;;21.97;55.71;101896.56;5076870;27;45938;-61
2022/07/07 08:21:23;;;;;;;;;2.25;2.25;;;;;22.00;55.20;101901.69;5076822;27;45250;-61
2022/07/07 08:23:49;;;;;;;;;3.00;1.75;;;;;21.90;54.70;101887.22;5076902;27;45290;-62
2022/07/07 08:26:15;;;;;;;;;1.00;1.00;;;;;22.02;55.27;101902.47;5077014;27;45381;-62
2022/07/07 08:28:40;;;;;;;;;2.00;2.00;;;;;22.11;54.80;101903.56;5076841;27;45360;-62
2022/07/07 08:31:06;;;;;;;;;6.00;4.00;;;;;22.30;54.93;101895.59;5076427;27;45274;-63
2022/07/07 08:33:33;;;;;;;;;1.50;1.50;;;;;22.51;53.68;101888.31;5075436;28;45302;-63
2022/07/07 08:35:58;;;;;;;;;4.33;3.00;;;;;22.63;54.14;101891.84;5077311;27;45342;-60
2022/07/07 08:38:24;;;;;;;;;2.50;2.50;;;;;22.64;54.22;101880.84;5076614;27;45317;-62
2022/07/07 08:40:51;;;;;;;;;2.00;2.00;;;;;23.05;53.21;101886.41;5076880;27;45427;-60
2022/07/07 08:43:16;;;;;;;;;2.50;2.50;;;;;23.47;51.99;101882.59;5077011;28;45398;-61
2022/07/07 08:45:42;;;;;;;;;3.00;3.00;;;;;23.89;51.09;101876.13;5077231;27;45439;-60
2022/07/07 08:48:07;;;;;;;;;1.00;1.00;;;;;24.17;50.33;101875.28;5076108;28;45466;-60
2022/07/07 08:50:34;;;;;;;;;2.50;2.50;;;;;24.26;50.13;101895.31;5075315;28;45396;-62
2022/07/07 08:53:01;;;;;;;;;3.00;3.00;;;;;24.30;49.72;101907.63;5076063;27;45491;-59
2022/07/07 08:55:30;;;;;;;;;1.25;1.25;;;;;24.27;49.11;101907.91;5075677;27;45267;-61
2022/07/07 08:57:56;;;;;;;;;1.50;1.50;;;;;24.32;48.94;101895.59;5074110;28;45613;-61
2022/07/07 09:00:22;;;;;;;;;3.00;1.75;;;;;24.40;49.23;101898.47;5075815;28;45341;-59
2022/07/07 09:02:49;;;;;;;;;2.00;2.00;;;;;24.47;49.19;101890.59;5076042;27;45247;-60
2022/07/07 09:05:14;;;;;;;;;8.00;8.00;;;;;24.63;47.83;101892.75;5076760;27;45827;-64
2022/07/07 09:07:48;;;;;;;;;2.00;2.00;;;;;24.56;48.09;101889.72;5076432;27;45314;-61
2022/07/07 09:10:30;;;;;;;;;2.00;2.00;;;;;24.76;46.20;101887.84;5076268;28;45333;-61
2022/07/07 09:12:56;;;;;;;;;5.75;5.00;;;;;24.86;46.47;101882.34;5075836;27;45441;-62
2022/07/07 09:15:21;;;;;;;;;3.25;3.25;;;;;24.93;46.86;101894.38;5076227;27;45465;-62
2022/07/07 09:17:47;;;;;;;;;2.50;2.50;;;;;25.01;47.18;101904.56;5074391;27;46384;-61
2022/07/07 09:20:12;;;;;;;;;1.00;1.00;;;;;24.92;46.77;101893.50;5076133;27;45354;-62
2022/07/07 09:22:49;;;;;;;;;4.00;3.00;;;;;24.84;47.31;101897.97;5075834;27;45311;-61
2022/07/07 09:25:16;;;;;;;;;2.00;2.00;;;;;24.76;47.17;101898.72;5076643;27;45260;-62
2022/07/07 09:27:58;;;;;;;;;3.60;2.00;;;;;24.90;47.22;101905.56;5074538;28;45372;-61
2022/07/07 09:30:32;;;;;;;;;2.50;2.00;;;;;25.10;46.26;101907.22;5076162;27;45267;-61
2022/07/07 09:33:00;;;;;;;;;2.00;1.00;;;;;25.09;46.91;101908.25;5076211;27;45358;-61
2022/07/07 09:38:22;;;;;;;;;3.25;3.00;;;;;24.99;47.66;101920.97;5075651;28;45759;-60
2022/07/07 09:41:05;;;;;;;;;4.00;2.00;;;;;25.08;46.53;101919.28;5074186;27;45366;-61
2022/07/07 09:43:52;;;;;;;;;3.60;3.40;;;;;24.96;46.59;101922.16;5075776;27;45239;-62
2022/07/07 09:46:23;;;;;;;;;2.75;1.75;;;;;24.73;48.06;101926.19;5075442;27;45409;-60
2022/07/07 09:48:51;;;;;;;;;1.75;1.75;;;;;24.66;47.92;101941.41;5075326;27;45342;-61
2022/07/07 09:51:25;;;;;;;;;3.00;3.00;;;;;24.38;47.64;101937.69;5075213;28;45193;-61
2022/07/07 09:53:55;;;;;;;;;2.00;2.00;;;;;24.04;48.59;101951.66;5055194;28;45232;-61
2022/07/07 09:56:26;;;;;;;;;2.00;2.00;;;;;23.82;49.74;101965.47;5055435;28;45409;-62
2022/07/07 09:58:52;;;;;;;;;2.25;2.25;;;;;23.79;49.65;101965.75;5055156;28;46165;-62
2022/07/07 10:01:24;;;;;;;;;1.40;1.40;;;;;23.65;49.97;101968.84;5055390;28;45392;-61
2022/07/07 10:03:52;;;;;;;;;2.20;2.00;;;;;23.53;50.20;101974.34;5055180;27;45285;-60
2022/07/07 10:06:18;;;;;;;;;2.00;2.00;;;;;23.45;50.55;101979.63;5070839;27;45360;-61
2022/07/07 10:08:45;;;;;;;;;2.00;2.00;;;;;23.42;50.62;101982.56;5057781;28;46200;-62
2022/07/07 10:11:18;;;;;;;;;3.00;3.00;;;;;23.43;50.91;101983.44;5058410;28;45441;-60
2022/07/07 10:13:46;;;;;;;;;2.50;1.50;;;;;23.39;49.69;101993.72;5074378;27;45390;-60
2022/07/07 10:16:13;;;;;;;;;2.00;2.00;;;;;23.29;50.03;101995.50;5058630;28;45570;-61
2022/07/07 10:18:40;;;;;;;;;2.00;2.00;;;;;23.09;49.19;101993.69;5058102;28;46112;-62
2022/07/07 10:21:06;;;;;;;;;3.25;2.00;;;;;22.93;49.82;101986.88;5058742;28;45377;-62
2022/07/07 10:23:34;;;;;;;;;2.00;2.00;;;;;22.93;50.13;101995.03;5059944;28;45421;-61
2022/07/07 10:26:04;;;;;;;;;1.00;1.00;;;;;22.99;49.92;101996.34;5058591;28;45424;-62
2022/07/07 10:28:54;;;;;;;;;2.75;2.75;;;;;23.01;50.37;101999.78;5058421;28;46459;-62
2022/07/07 10:31:25;;;;;;;;;3.00;3.00;;;;;23.12;50.81;102007.84;5058015;28;45314;-61
2022/07/07 10:33:55;;;;;;;;;1.75;1.75;;;;;23.16;49.97;102003.00;5073820;27;45325;-62
2022/07/07 10:36:21;;;;;;;;;2.25;1.00;;;;;23.26;50.46;102003.94;5073731;27;45448;-61
2022/07/07 10:38:51;;;;;;;;;1.25;1.25;;;;;23.35;49.75;101991.41;5058184;28;46506;-59
2022/07/07 10:41:23;;;;;;;;;2.00;2.00;;;;;23.43;49.61;102016.00;5058216;27;45352;-59
2022/07/07 10:44:03;;;;;;;;;2.00;2.00;;;;;23.48;49.88;102016.50;5058327;28;45332;-60
2022/07/07 10:46:28;;;;;;;;;1.75;1.75;;;;;23.34;49.71;102008.69;5057808;28;45314;-62
2022/07/07 10:49:08;;;;;;;;;4.25;3.00;;;;;23.37;50.08;102028.28;5057442;28;45842;-61
2022/07/07 10:51:51;;;;;;;;;3.00;3.00;;;;;23.34;50.30;102027.69;5059707;28;45189;-62
2022/07/07 10:54:33;;;;;;;;;2.25;1.75;;;;;23.32;50.04;102026.97;5077436;28;45438;-62
2022/07/07 10:57:01;;;;;;;;;4.00;4.00;;;;;23.32;50.26;102024.25;5078720;27;45242;-60
2022/07/07 10:59:28;;;;;;;;;4.00;2.00;;;;;23.08;50.13;102016.41;5076546;28;46347;-62
2022/07/07 11:02:02;;;;;;;;;2.75;2.75;;;;;23.11;50.76;102021.56;5077884;27;45394;-60
2022/07/07 11:04:43;;;;;;;;;1.00;1.00;;;;;23.12;50.70;102029.56;5077930;27;45332;-62
2022/07/07 11:07:14;;;;;;;;;4.25;3.00;;;;;23.01;50.69;102036.91;5077792;27;45249;-61
2022/07/07 11:10:00;;;;;;;;;6.00;4.00;;;;;23.09;50.96;102035.25;5077510;27;47181;-60
2022/07/07 11:12:38;;;;;;;;;3.00;3.00;;;;;23.16;50.89;102024.72;5076144;28;45299;-61
2022/07/07 11:15:22;;;;;;;;;2.00;2.00;;;;;23.27;50.51;102038.22;5077900;27;45460;-61
2022/07/07 11:17:49;;;;;;;;;2.00;2.00;;;;;23.43;49.81;102033.16;5079227;27;45536;-62
2022/07/07 11:20:17;;;;;;;;;3.00;3.00;;;;;23.67;50.30;102037.47;5077857;28;46343;-66
2022/07/07 11:22:48;;;;;;;;;4.75;3.00;;;;;23.88;48.87;102038.28;5079436;27;45460;-60
2022/07/07 11:25:15;;;;;;;;;2.50;2.50;;;;;23.86;48.44;102023.97;5078313;27;45438;-60
2022/07/07 11:27:41;;;;;;;;;8.75;6.25;;;;;24.00;48.10;102042.63;5077870;27;45933;-61